Time;durP1;ratioP1;P1;durP2;ratioP2;P2;SDS_P1;SDS_P2;PMS_P1;PMS_P2;Temp;Humidity;BMP_temperature;BMP_pressure;BME280_temperature;BME280_humidity;BME280_pressure;Samples;Min_cycle;Max_cycle;Signal;HPM_P1;HPM_P2
2023/08/11 00:03:52;;;;;;;3.03;2.20;;;25.20;90.30;;;;;;10079064;28;20070;-67
2023/08/11 00:08:43;;;;;;;5.13;2.47;;;25.00;90.50;;;;;;10096697;28;20590;-66
2023/08/11 00:13:34;;;;;;;3.58;2.20;;;24.90;90.70;;;;;;10097606;28;20062;-66
2023/08/11 00:18:24;;;;;;;2.92;2.15;;;24.80;90.90;;;;;;10097724;28;20045;-66
2023/08/11 00:23:15;;;;;;;2.88;1.83;;;24.90;90.80;;;;;;10097369;28;20112;-67
2023/08/11 00:28:06;;;;;;;3.17;2.28;;;24.90;90.90;;;;;;10097053;28;20040;-67
2023/08/11 00:32:57;;;;;;;3.22;2.13;;;24.80;91.00;;;;;;10097009;28;20245;-67
2023/08/11 00:37:48;;;;;;;2.53;1.80;;;24.70;91.10;;;;;;10096634;28;20521;-67
2023/08/11 00:42:39;;;;;;;2.10;1.90;;;24.60;91.30;;;;;;10096724;28;20204;-67
2023/08/11 00:47:30;;;;;;;3.00;2.03;;;24.60;91.20;;;;;;10096252;28;20045;-67
2023/08/11 00:52:21;;;;;;;3.22;2.28;;;24.60;91.40;;;;;;10078353;28;20017;-68
2023/08/11 00:57:13;;;;;;;2.90;2.08;;;24.50;91.60;;;;;;10101335;28;20465;-67
2023/08/11 01:02:04;;;;;;;3.85;2.03;;;24.40;92.00;;;;;;10086267;28;20064;-67
2023/08/11 01:07:16;;;;;;;5.13;2.50;;;24.30;91.90;;;;;;10103071;28;20497;-67
2023/08/11 01:12:18;;;;;;;2.85;1.77;;;24.20;92.10;;;;;;10095544;28;20048;-67
2023/08/11 01:17:13;;;;;;;3.55;2.40;;;24.20;92.30;;;;;;10104256;28;20479;-67
2023/08/11 01:22:09;;;;;;;;;;;24.20;92.30;;;;;;10100736;28;20056;-70
2023/08/11 01:26:59;;;;;;;2.10;1.90;;;24.10;92.40;;;;;;10102468;28;19952;-70
2023/08/11 01:31:50;;;;;;;2.55;2.00;;;24.10;92.40;;;;;;10102875;28;20509;-70
2023/08/11 01:36:41;;;;;;;4.50;3.10;;;24.00;92.40;;;;;;10102641;28;20212;-70
2023/08/11 01:41:32;;;;;;;3.55;2.22;;;24.10;92.40;;;;;;10102501;28;20437;-71
2023/08/11 01:46:24;;;;;;;3.67;2.40;;;24.10;92.40;;;;;;10102231;28;20577;-71
2023/08/11 01:51:15;;;;;;;5.43;2.10;;;24.10;92.50;;;;;;10102089;28;20519;-69
2023/08/11 01:56:06;;;;;;;3.72;2.60;;;24.00;92.70;;;;;;10099566;28;20025;-69
2023/08/11 02:00:56;;;;;;;3.03;1.98;;;23.90;92.70;;;;;;10102030;28;20033;-71
2023/08/11 02:05:48;;;;;;;3.33;2.05;;;24.00;92.60;;;;;;10101457;28;20147;-67
2023/08/11 02:10:39;;;;;;;4.18;2.28;;;23.80;92.90;;;;;;10100608;28;20088;-67
2023/08/11 02:15:29;;;;;;;2.92;2.22;;;23.70;92.90;;;;;;10102714;28;20479;-68
2023/08/11 02:25:11;;;;;;;3.42;2.40;;;23.70;92.90;;;;;;10100837;28;20037;-72
2023/08/11 02:30:05;;;;;;;2.75;2.00;;;23.60;92.90;;;;;;10100790;28;20067;-71
2023/08/11 02:34:56;;;;;;;3.50;2.23;;;23.50;93.10;;;;;;10100355;28;20102;-69
2023/08/11 02:39:46;;;;;;;3.80;2.17;;;23.50;93.10;;;;;;10091483;28;20551;-69
2023/08/11 02:44:37;;;;;;;3.67;2.20;;;23.40;93.20;;;;;;10100121;28;20037;-69
2023/08/11 02:49:27;;;;;;;6.93;3.15;;;23.40;93.30;;;;;;10100976;28;20044;-67
2023/08/11 02:54:19;;;;;;;2.40;2.10;;;23.40;93.30;;;;;;10099397;28;20036;-67
2023/08/11 02:59:10;;;;;;;2.83;2.53;;;23.40;93.40;;;;;;10099837;28;20029;-67
2023/08/11 03:04:00;;;;;;;3.92;2.58;;;23.40;93.50;;;;;;10086883;28;20140;-67
2023/08/11 03:08:52;;;;;;;3.72;2.45;;;23.20;93.60;;;;;;10083502;28;20406;-67
2023/08/11 03:13:42;;;;;;;3.25;2.40;;;23.10;93.70;;;;;;10086889;28;20041;-69
2023/08/11 03:18:33;;;;;;;5.53;2.10;;;23.10;93.80;;;;;;10095153;28;20035;-68
2023/08/11 03:23:24;;;;;;;3.67;2.45;;;23.10;93.90;;;;;;10098005;28;20199;-68
2023/08/11 03:28:14;;;;;;;3.13;2.40;;;23.10;93.90;;;;;;10092334;28;20436;-67
2023/08/11 03:33:05;;;;;;;5.05;3.05;;;23.20;93.90;;;;;;10091454;28;20111;-68
2023/08/11 03:37:56;;;;;;;4.30;3.15;;;23.00;94.20;;;;;;10098659;28;20033;-68
2023/08/11 03:42:47;;;;;;;5.07;4.03;;;22.90;94.30;;;;;;10097810;28;20402;-67
2023/08/11 03:47:38;;;;;;;4.90;3.25;;;22.90;94.50;;;;;;10098118;28;20048;-67
2023/08/11 03:52:29;;;;;;;3.67;2.88;;;22.90;94.50;;;;;;10097544;28;20106;-67
2023/08/11 03:57:19;;;;;;;4.22;2.85;;;22.90;94.60;;;;;;10097315;28;20087;-68
2023/08/11 04:02:10;;;;;;;5.28;2.67;;;22.80;94.60;;;;;;10089242;28;20025;-66
2023/08/11 04:07:01;;;;;;;5.60;2.80;;;22.80;94.80;;;;;;10096043;28;20037;-67
2023/08/11 04:11:51;;;;;;;5.65;3.35;;;22.80;94.80;;;;;;10099135;28;20091;-68
2023/08/11 04:16:43;;;;;;;4.53;2.47;;;22.90;94.80;;;;;;10079672;28;20044;-68
2023/08/11 04:21:34;;;;;;;4.68;2.70;;;22.80;94.90;;;;;;10097532;28;20031;-67
2023/08/11 04:26:25;;;;;;;3.25;2.40;;;22.70;95.10;;;;;;10095774;28;20037;-67
2023/08/11 04:31:15;;;;;;;4.65;3.08;;;22.70;95.00;;;;;;10106176;28;20395;-67
2023/08/11 04:36:06;;;;;;;3.53;2.22;;;22.60;95.20;;;;;;10110591;28;20029;-67
2023/08/11 04:40:57;;;;;;;5.13;2.75;;;22.50;95.50;;;;;;10091743;28;20035;-67
2023/08/11 04:45:49;;;;;;;6.45;2.80;;;22.30;95.80;;;;;;10100819;28;20025;-67
2023/08/11 04:50:39;;;;;;;3.38;2.38;;;22.20;96.10;;;;;;10109703;28;20048;-67
2023/08/11 04:55:31;;;;;;;4.35;2.65;;;22.10;96.20;;;;;;10110948;28;20410;-68
2023/08/11 05:00:22;;;;;;;5.30;3.20;;;22.10;96.40;;;;;;10109695;28;20036;-67
2023/08/11 05:05:13;;;;;;;6.50;2.97;;;22.30;96.00;;;;;;10082274;28;20025;-67
2023/08/11 05:10:04;;;;;;;4.38;3.35;;;22.20;96.20;;;;;;10083490;28;20053;-68
2023/08/11 05:14:55;;;;;;;5.25;2.97;;;22.10;96.30;;;;;;10110071;28;20033;-67
2023/08/11 05:19:46;;;;;;;7.25;4.05;;;22.20;96.40;;;;;;10109485;28;20032;-68
2023/08/11 05:24:36;;;;;;;5.70;3.60;;;22.10;96.60;;;;;;10104809;28;20024;-69
2023/08/11 05:29:27;;;;;;;4.57;2.95;;;22.00;96.70;;;;;;10091174;28;20072;-67
2023/08/11 05:34:18;;;;;;;5.80;3.08;;;22.00;96.90;;;;;;10108691;28;20024;-67
2023/08/11 05:39:10;;;;;;;6.47;3.08;;;22.00;96.90;;;;;;10090882;28;20371;-68
2023/08/11 05:44:01;;;;;;;4.57;3.15;;;22.00;97.10;;;;;;10101897;28;20465;-68
2023/08/11 05:48:51;;;;;;;5.03;3.20;;;22.00;97.20;;;;;;10102809;28;20082;-67
2023/08/11 05:53:42;;;;;;;6.95;2.58;;;22.00;97.20;;;;;;10101541;28;20048;-68
2023/08/11 05:58:33;;;;;;;4.50;3.03;;;22.20;97.20;;;;;;10101959;28;20331;-68
2023/08/11 06:03:29;;;;;;;4.72;3.05;;;22.20;97.20;;;;;;10101758;28;20304;-67
2023/08/11 06:08:20;;;;;;;4.70;3.03;;;22.30;97.30;;;;;;10098888;28;20037;-68
2023/08/11 06:13:11;;;;;;;6.35;2.83;;;22.10;97.40;;;;;;10084293;28;20502;-68
2023/08/11 06:18:01;;;;;;;5.68;3.60;;;22.30;97.40;;;;;;10102271;28;20033;-68
2023/08/11 06:22:52;;;;;;;6.63;3.78;;;22.30;97.20;;;;;;10100166;28;20380;-67
2023/08/11 06:27:44;;;;;;;6.35;3.25;;;22.30;97.20;;;;;;10101206;28;20049;-67
2023/08/11 06:32:35;;;;;;;6.35;3.42;;;22.30;97.30;;;;;;10099853;28;20071;-67
2023/08/11 06:37:26;;;;;;;5.03;3.35;;;22.30;97.30;;;;;;10103108;28;20037;-66
2023/08/11 06:42:17;;;;;;;5.05;2.83;;;22.40;97.10;;;;;;10099688;28;20028;-67
2023/08/11 06:47:07;;;;;;;9.80;3.55;;;22.40;97.20;;;;;;10099257;28;20032;-68
2023/08/11 06:51:58;;;;;;;5.85;3.33;;;22.50;97.20;;;;;;10092400;28;20049;-67
2023/08/11 06:56:48;;;;;;;5.68;3.03;;;22.50;97.20;;;;;;10100099;28;20120;-69
2023/08/11 07:01:39;;;;;;;5.18;2.72;;;22.60;97.00;;;;;;10096904;28;20115;-67
2023/08/11 07:06:30;;;;;;;5.47;3.15;;;22.60;97.00;;;;;;10092181;28;20471;-67
2023/08/11 07:11:21;;;;;;;6.75;3.03;;;22.70;97.00;;;;;;10086488;28;20521;-66
2023/08/11 07:16:11;;;;;;;7.28;3.65;;;22.70;97.10;;;;;;10093068;28;20021;-67
2023/08/11 07:21:02;;;;;;;5.07;3.03;;;22.70;97.10;;;;;;10074791;28;20095;-67
2023/08/11 07:25:53;;;;;;;7.68;3.67;;;22.70;97.10;;;;;;10088741;28;20021;-66
2023/08/11 07:30:44;;;;;;;5.28;3.25;;;22.80;97.10;;;;;;10095698;28;20033;-67
2023/08/11 07:35:34;;;;;;;4.35;2.63;;;23.00;97.00;;;;;;10089635;28;20494;-67
2023/08/11 07:40:25;;;;;;;5.43;3.63;;;23.00;97.10;;;;;;10075188;28;20474;-67
2023/08/11 07:45:15;;;;;;;4.63;3.20;;;23.00;97.20;;;;;;10078108;28;20346;-69
2023/08/11 07:50:07;;;;;;;4.10;3.58;;;23.10;97.20;;;;;;10082725;28;20128;-67
2023/08/11 07:54:57;;;;;;;5.70;3.05;;;23.00;97.30;;;;;;10074523;28;20036;-67
2023/08/11 07:59:48;;;;;;;5.97;2.95;;;23.10;97.40;;;;;;10080605;28;20386;-67
2023/08/11 08:04:39;;;;;;;6.18;3.00;;;23.10;97.40;;;;;;10089326;28;20021;-67
2023/08/11 08:09:33;;;;;;;5.97;3.13;;;23.30;97.40;;;;;;10081992;28;20032;-67
2023/08/11 08:14:24;;;;;;;3.38;2.65;;;23.30;97.40;;;;;;10061651;28;20421;-67
2023/08/11 08:19:16;;;;;;;11.00;5.47;;;23.30;97.40;;;;;;10077708;28;20047;-67
2023/08/11 08:24:08;;;;;;;6.35;3.17;;;23.40;97.30;;;;;;10087979;28;20040;-68
2023/08/11 08:28:59;;;;;;;4.63;2.50;;;23.50;97.20;;;;;;10097171;28;20044;-67
2023/08/11 08:33:50;;;;;;;4.28;2.47;;;23.50;97.30;;;;;;10091548;28;20013;-68
2023/08/11 08:38:41;;;;;;;3.75;2.63;;;23.60;97.20;;;;;;10079601;28;20549;-66
2023/08/11 08:43:31;;;;;;;3.45;2.28;;;23.60;97.10;;;;;;10079150;28;20033;-68
2023/08/11 08:48:30;;;;;;;3.78;3.17;;;23.60;97.20;;;;;;10093828;28;20060;-66
2023/08/11 08:53:22;;;;;;;5.85;2.70;;;23.60;97.20;;;;;;10077864;28;20045;-66
2023/08/11 08:58:14;;;;;;;4.28;2.88;;;23.60;97.20;;;;;;10080648;28;20476;-68
2023/08/11 09:03:05;;;;;;;3.95;2.20;;;23.70;97.20;;;;;;10101484;28;20079;-66
2023/08/11 09:07:56;;;;;;;5.32;2.53;;;23.80;97.20;;;;;;10095048;28;20091;-67
2023/08/11 09:12:48;;;;;;;4.07;2.40;;;23.80;97.10;;;;;;10095284;28;20486;-66
2023/08/11 09:17:39;;;;;;;5.35;3.03;;;23.90;97.10;;;;;;10097083;28;20167;-67
2023/08/11 09:22:32;;;;;;;4.40;2.65;;;24.00;97.00;;;;;;10095895;28;20115;-68
2023/08/11 09:27:23;;;;;;;4.70;2.53;;;24.00;97.00;;;;;;10101691;28;20197;-67
2023/08/11 09:32:14;;;;;;;2.67;2.17;;;24.00;96.90;;;;;;10104413;28;20211;-67
2023/08/11 09:37:06;;;;;;;5.22;2.50;;;24.00;96.80;;;;;;10097123;28;20528;-68
2023/08/11 09:41:56;;;;;;;4.03;2.58;;;24.10;96.90;;;;;;10080119;28;20026;-67
2023/08/11 09:46:48;;;;;;;5.30;2.00;;;24.10;96.90;;;;;;10098387;28;20780;-67
2023/08/11 09:51:40;;;;;;;3.95;2.55;;;24.20;96.90;;;;;;10093838;28;20032;-65
2023/08/11 09:56:36;;;;;;;3.95;2.50;;;24.20;96.80;;;;;;10088555;28;20079;-64
2023/08/11 10:01:28;;;;;;;5.63;2.67;;;24.30;96.80;;;;;;10093928;28;20418;-64
2023/08/11 10:06:27;;;;;;;4.80;2.63;;;24.30;96.90;;;;;;10094892;28;20103;-64
2023/08/11 10:11:21;;;;;;;3.80;2.35;;;24.30;97.00;;;;;;10084506;28;20051;-68
2023/08/11 10:16:14;;;;;;;3.47;2.78;;;24.40;97.00;;;;;;10100338;28;20044;-67
2023/08/11 10:21:05;;;;;;;3.75;3.03;;;24.50;97.00;;;;;;10092759;28;20132;-67
2023/08/11 10:25:56;;;;;;;6.03;2.38;;;24.50;97.30;;;;;;10082020;28;20130;-67
2023/08/11 10:31:00;;;;;;;4.97;2.78;;;24.50;97.10;;;;;;10101341;28;20160;-68
2023/08/11 10:35:52;;;;;;;4.82;2.80;;;24.60;97.30;;;;;;10093152;28;20078;-67
2023/08/11 10:40:44;;;;;;;3.92;2.63;;;24.60;97.20;;;;;;10080056;28;20021;-68
2023/08/11 10:45:36;;;;;;;8.00;3.22;;;24.60;97.30;;;;;;10085288;28;20074;-67
2023/08/11 10:50:27;;;;;;;4.30;3.15;;;24.60;97.40;;;;;;10082541;28;20052;-67
2023/08/11 10:55:19;;;;;;;4.38;2.78;;;24.70;97.50;;;;;;10076350;28;20159;-67
2023/08/11 11:00:11;;;;;;;4.53;3.33;;;24.70;97.80;;;;;;10093700;28;20108;-69
2023/08/11 11:05:02;;;;;;;3.78;2.25;;;24.70;97.60;;;;;;10073779;28;20425;-66
2023/08/11 11:09:53;;;;;;;3.40;2.33;;;24.70;97.60;;;;;;10078353;28;20119;-66
2023/08/11 11:14:44;;;;;;;2.60;2.08;;;24.80;97.60;;;;;;10095071;28;20040;-66
2023/08/11 11:19:35;;;;;;;3.63;2.60;;;24.80;97.60;;;;;;10094414;28;20223;-66
2023/08/11 11:24:26;;;;;;;4.30;2.70;;;24.90;97.70;;;;;;10092429;28;20033;-67
2023/08/11 11:29:23;;;;;;;4.43;2.33;;;25.00;97.80;;;;;;10094956;28;20123;-66
2023/08/11 11:34:14;;;;;;;3.05;2.42;;;25.00;97.70;;;;;;10096181;28;20025;-66
2023/08/11 11:39:06;;;;;;;3.20;2.10;;;25.20;97.80;;;;;;10108283;28;20075;-68
2023/08/11 11:43:56;;;;;;;3.38;2.30;;;25.10;97.90;;;;;;10099089;28;20044;-68
2023/08/11 11:48:52;;;;;;;4.88;2.38;;;25.10;98.00;;;;;;10097412;28;20037;-68
2023/08/11 11:53:43;;;;;;;4.32;2.90;;;25.10;98.10;;;;;;10097288;28;20033;-68
2023/08/11 11:58:38;;;;;;;3.55;2.30;;;25.40;98.20;;;;;;10090140;28;20500;-68
2023/08/11 12:03:31;;;;;;;13.38;2.15;;;25.50;98.10;;;;;;10069681;28;20029;-68
2023/08/11 12:08:25;;;;;;;113.13;68.20;;;25.60;98.10;;;;;;10097331;28;20114;-69
2023/08/11 12:13:17;;;;;;;26.23;19.97;;;25.70;98.00;;;;;;10085188;28;20049;-69
2023/08/11 12:18:08;;;;;;;5.45;4.25;;;25.80;98.00;;;;;;10094347;28;20617;-68
2023/08/11 12:22:59;;;;;;;4.25;3.05;;;26.00;97.90;;;;;;10060658;28;20514;-69
2023/08/11 12:27:53;;;;;;;5.65;2.88;;;26.00;97.90;;;;;;10102518;28;20029;-68
2023/08/11 12:32:44;;;;;;;4.43;2.85;;;26.10;97.90;;;;;;10095671;28;20048;-68
2023/08/11 12:37:35;;;;;;;6.88;3.13;;;26.10;97.90;;;;;;10096545;28;20048;-69
2023/08/11 12:42:25;;;;;;;3.55;2.58;;;26.30;97.80;;;;;;10098404;28;20029;-68
2023/08/11 12:47:16;;;;;;;5.65;2.60;;;26.30;97.70;;;;;;10095953;28;20068;-68
2023/08/11 12:52:06;;;;;;;3.90;2.72;;;26.60;97.80;;;;;;10102146;28;20103;-68
2023/08/11 12:56:57;;;;;;;3.13;2.03;;;26.70;97.60;;;;;;10105259;28;20029;-68
2023/08/11 13:01:47;;;;;;;3.63;2.40;;;27.00;97.60;;;;;;10103483;28;20514;-68
2023/08/11 13:06:39;;;;;;;2.88;1.95;;;27.30;97.50;;;;;;10092613;28;20091;-68
2023/08/11 13:11:30;;;;;;;2.20;1.55;;;27.30;97.30;;;;;;10104808;28;20060;-68
2023/08/11 13:16:21;;;;;;;3.92;2.25;;;27.40;97.10;;;;;;10104517;28;20044;-68
2023/08/11 13:21:11;;;;;;;2.55;1.90;;;27.50;97.00;;;;;;10103548;28;20136;-68
2023/08/11 13:26:02;;;;;;;2.78;2.03;;;27.60;96.90;;;;;;10094524;28;20025;-68
2023/08/11 13:30:53;;;;;;;3.10;2.25;;;27.80;96.70;;;;;;10094710;28;20522;-68
2023/08/11 13:35:44;;;;;;;3.05;1.98;;;28.00;96.60;;;;;;10096227;28;20025;-68
2023/08/11 13:40:34;;;;;;;3.03;1.90;;;28.10;96.50;;;;;;10089321;28;20036;-68
2023/08/11 13:45:25;;;;;;;2.13;1.67;;;28.40;96.30;;;;;;10094528;28;20108;-68
2023/08/11 13:50:16;;;;;;;3.95;1.95;;;28.50;96.00;;;;;;10102253;28;20384;-68
2023/08/11 13:55:07;;;;;;;4.30;2.38;;;28.60;95.90;;;;;;10103726;28;20112;-69
2023/08/11 13:59:59;;;;;;;4.38;2.22;;;28.70;95.70;;;;;;10107617;28;20289;-67
2023/08/11 14:04:50;;;;;;;18.25;12.07;;;28.90;95.60;;;;;;10099389;28;20112;-69
2023/08/11 14:09:41;;;;;;;59.05;37.95;;;29.10;95.50;;;;;;10105166;28;20120;-68
2023/08/11 14:14:32;;;;;;;13.23;8.80;;;29.10;95.50;;;;;;10101627;28;20612;-69
2023/08/11 14:19:22;;;;;;;6.10;3.95;;;29.50;95.30;;;;;;10101269;28;20048;-69
2023/08/11 14:24:13;;;;;;;3.03;2.10;;;29.70;95.10;;;;;;10102893;28;20514;-70
2023/08/11 14:29:05;;;;;;;3.55;2.20;;;30.00;94.80;;;;;;10100232;28;20388;-69
2023/08/11 14:33:56;;;;;;;2.85;2.13;;;30.20;94.50;;;;;;10099881;28;20294;-68
2023/08/11 14:38:46;;;;;;;2.35;1.77;;;30.50;94.30;;;;;;10100734;28;20352;-69
2023/08/11 14:43:37;;;;;;;3.72;1.60;;;30.60;94.10;;;;;;10081596;28;20078;-68
2023/08/11 14:48:28;;;;;;;5.38;1.83;;;30.80;93.90;;;;;;10080683;28;20044;-68
2023/08/11 14:53:23;;;;;;;4.00;1.40;;;31.10;93.70;;;;;;10101328;28;20029;-69
2023/08/11 14:58:14;;;;;;;4.68;2.38;;;31.20;93.50;;;;;;10099410;28;20169;-69
2023/08/11 15:03:06;;;;;;;2.63;1.92;;;31.40;93.30;;;;;;10064655;28;20020;-69
2023/08/11 15:07:56;;;;;;;3.80;2.03;;;31.70;93.00;;;;;;10100243;28;20481;-68
2023/08/11 15:12:47;;;;;;;4.22;3.20;;;31.90;92.70;;;;;;10098123;28;20045;-69
2023/08/11 15:17:37;;;;;;;4.57;2.65;;;32.00;92.40;;;;;;10081611;28;20029;-69
2023/08/11 15:22:28;;;;;;;5.80;2.50;;;32.30;92.20;;;;;;10100537;28;20403;-68
2023/08/11 15:27:19;;;;;;;133.75;86.75;;;32.40;92.00;;;;;;10082998;28;20051;-69
2023/08/11 15:32:09;;;;;;;14.90;12.07;;;32.50;91.90;;;;;;10100627;28;20094;-69
2023/08/11 15:37:00;;;;;;;7.00;3.72;;;32.80;91.60;;;;;;10089020;28;20021;-68
2023/08/11 15:41:51;;;;;;;4.07;3.20;;;33.10;91.40;;;;;;10092396;28;20043;-68
2023/08/11 15:46:41;;;;;;;4.45;3.13;;;33.20;91.10;;;;;;10087167;28;20041;-68
2023/08/11 15:51:32;;;;;;;4.82;2.28;;;33.50;90.90;;;;;;10086560;28;20029;-67
2023/08/11 15:56:23;;;;;;;3.78;2.33;;;34.00;90.50;;;;;;10058486;28;20032;-68
2023/08/11 16:01:13;;;;;;;2.78;1.85;;;34.40;90.10;;;;;;10101295;28;20021;-68
2023/08/11 16:06:05;;;;;;;2.85;2.10;;;34.60;89.80;;;;;;10093007;28;20388;-68
2023/08/11 16:10:56;;;;;;;3.78;2.47;;;34.60;89.30;;;;;;10075862;28;20059;-68
2023/08/11 16:15:46;;;;;;;4.18;2.35;;;34.90;89.00;;;;;;10094780;28;20107;-68
2023/08/11 16:20:37;;;;;;;4.82;2.47;;;35.20;88.40;;;;;;10093472;28;20394;-68
2023/08/11 16:25:28;;;;;;;3.92;2.10;;;35.60;87.60;;;;;;10099238;28;20032;-68
2023/08/11 16:30:18;;;;;;;2.55;2.10;;;35.70;87.10;;;;;;10075220;28;20415;-68
2023/08/11 16:35:09;;;;;;;3.75;2.25;;;35.90;86.70;;;;;;10092937;28;20061;-68
2023/08/11 16:40:00;;;;;;;3.05;2.10;;;36.00;86.20;;;;;;10094324;28;20422;-68
2023/08/11 16:44:50;;;;;;;3.60;2.13;;;35.80;85.70;;;;;;10096430;28;20021;-68
2023/08/11 16:49:41;;;;;;;4.55;2.72;;;35.50;85.60;;;;;;10096628;28;20055;-68
2023/08/11 16:54:32;;;;;;;5.70;3.10;;;35.60;85.00;;;;;;10096090;28;20021;-68
2023/08/11 16:59:22;;;;;;;5.88;2.53;;;35.60;84.70;;;;;;10096291;28;20467;-68
2023/08/11 17:04:13;;;;;;;5.43;2.88;;;35.80;84.10;;;;;;10096869;28;20028;-68
2023/08/11 17:09:04;;;;;;;5.03;2.80;;;35.80;83.70;;;;;;10100380;28;20050;-68
2023/08/11 17:13:54;;;;;;;3.17;2.33;;;35.60;83.70;;;;;;10096077;28;20134;-68
2023/08/11 17:18:46;;;;;;;3.45;2.40;;;35.60;83.50;;;;;;10096711;28;20029;-67
2023/08/11 17:23:37;;;;;;;3.60;2.63;;;35.60;83.20;;;;;;10095752;28;20383;-67
2023/08/11 17:28:28;;;;;;;3.85;2.47;;;35.30;83.10;;;;;;10077750;28;20029;-67
2023/08/11 17:33:18;;;;;;;5.75;3.10;;;35.30;83.00;;;;;;10077497;28;20124;-67
2023/08/11 17:38:09;;;;;;;4.05;2.90;;;35.10;82.80;;;;;;10099097;28;20029;-67
2023/08/11 17:43:00;;;;;;;3.60;2.85;;;34.90;82.90;;;;;;10102152;28;20029;-67
2023/08/11 17:47:50;;;;;;;4.28;2.80;;;34.40;83.20;;;;;;10084360;28;20036;-67
2023/08/11 17:52:41;;;;;;;3.28;2.40;;;33.90;83.50;;;;;;10097452;28;20028;-67
2023/08/11 17:57:32;;;;;;;2.67;2.47;;;33.60;83.90;;;;;;10101836;28;20127;-68
2023/08/11 18:02:22;;;;;;;3.88;2.83;;;33.40;83.90;;;;;;10101275;28;20025;-67
2023/08/11 18:07:13;;;;;;;5.90;3.05;;;33.20;84.10;;;;;;10101475;28;20390;-67
2023/08/11 18:12:04;;;;;;;6.55;2.92;;;33.10;84.30;;;;;;10101829;28;20284;-68
2023/08/11 18:16:55;;;;;;;5.25;3.10;;;33.00;84.60;;;;;;10102891;28;20021;-68
2023/08/11 18:21:45;;;;;;;5.53;2.80;;;33.00;84.90;;;;;;10100657;28;20025;-68
2023/08/11 18:26:36;;;;;;;5.43;2.90;;;32.90;85.00;;;;;;10100439;28;20468;-69
2023/08/11 18:31:27;;;;;;;5.35;3.10;;;32.90;85.30;;;;;;10100723;28;20037;-67
2023/08/11 18:36:18;;;;;;;6.40;3.55;;;32.80;85.70;;;;;;10100524;28;20017;-68
2023/08/11 18:41:08;;;;;;;5.47;4.00;;;32.70;85.80;;;;;;10100470;28;20060;-68
2023/08/11 18:46:03;;;;;;;7.57;5.07;;;32.70;86.00;;;;;;10099844;28;20475;-67
2023/08/11 18:50:53;;;;;;;10.13;5.60;;;32.60;86.20;;;;;;10099440;28;20029;-68
2023/08/11 18:55:44;;;;;;;19.33;11.05;;;32.60;86.50;;;;;;10081106;28;20033;-68
2023/08/11 19:00:35;;;;;;;8.18;5.35;;;32.50;86.60;;;;;;10099358;28;20024;-67
2023/08/11 19:05:26;;;;;;;3.95;2.88;;;32.50;86.80;;;;;;10081474;28;20096;-67
2023/08/11 19:10:17;;;;;;;4.93;3.40;;;32.30;87.10;;;;;;10098081;28;20557;-68
2023/08/11 19:15:08;;;;;;;5.90;3.17;;;32.20;87.30;;;;;;10082179;28;20028;-69
2023/08/11 19:19:59;;;;;;;7.07;3.40;;;32.20;87.20;;;;;;10099343;28;20429;-67
2023/08/11 19:24:50;;;;;;;7.88;4.63;;;32.20;87.40;;;;;;10098290;28;20029;-68
2023/08/11 19:29:40;;;;;;;6.93;4.18;;;32.20;87.40;;;;;;10097823;28;20033;-68
2023/08/11 19:34:31;;;;;;;9.32;5.38;;;32.10;87.50;;;;;;10097817;28;20533;-68
2023/08/11 19:39:21;;;;;;;10.82;5.13;;;32.10;87.80;;;;;;10098463;28;20254;-67
2023/08/11 19:44:12;;;;;;;8.00;5.93;;;32.00;88.30;;;;;;10097494;28;20028;-68
2023/08/11 19:49:03;;;;;;;10.25;5.80;;;31.90;88.40;;;;;;10097378;28;20246;-66
2023/08/11 19:53:54;;;;;;;10.13;5.65;;;31.90;88.70;;;;;;10097512;28;20029;-68
2023/08/11 19:58:48;;;;;;;9.15;4.85;;;31.80;88.90;;;;;;10079154;28;20100;-68
2023/08/11 20:03:38;;;;;;;;;;;31.80;89.10;;;;;;10084625;28;20074;-67
2023/08/11 20:08:29;;;;;;;7.03;4.72;;;31.60;89.50;;;;;;10087513;28;19925;-68
2023/08/11 20:13:20;;;;;;;6.00;4.53;;;31.50;89.60;;;;;;10088875;28;20561;-67
2023/08/11 20:18:10;;;;;;;6.68;4.70;;;31.50;89.70;;;;;;10093460;28;20123;-66
2023/08/11 20:23:01;;;;;;;5.63;3.85;;;31.50;89.90;;;;;;10095316;28;20057;-67
2023/08/11 20:27:52;;;;;;;7.50;4.88;;;31.50;90.00;;;;;;10104439;28;20473;-68
2023/08/11 20:32:43;;;;;;;8.02;4.55;;;31.30;90.10;;;;;;10096402;28;20085;-67
2023/08/11 20:37:33;;;;;;;6.53;4.30;;;31.30;90.20;;;;;;10096331;28;20037;-67
2023/08/11 20:42:24;;;;;;;7.38;4.43;;;31.20;90.20;;;;;;10096203;28;20093;-67
2023/08/11 20:47:15;;;;;;;7.60;4.65;;;31.20;90.30;;;;;;10096907;28;20413;-68
2023/08/11 20:52:05;;;;;;;10.27;4.45;;;31.10;90.50;;;;;;10077847;28;20044;-67
2023/08/11 20:57:00;;;;;;;6.50;4.10;;;31.00;90.70;;;;;;10096213;28;20029;-68
2023/08/11 21:01:50;;;;;;;6.18;4.40;;;31.00;90.70;;;;;;10096373;28;20055;-68
2023/08/11 21:06:41;;;;;;;10.43;4.22;;;30.90;90.80;;;;;;10095387;28;20033;-67
2023/08/11 21:11:32;;;;;;;9.73;4.85;;;30.80;91.00;;;;;;10097370;28;20036;-67
2023/08/11 21:16:22;;;;;;;5.28;3.75;;;30.70;91.00;;;;;;10104302;28;20064;-66
2023/08/11 21:21:13;;;;;;;6.38;4.13;;;30.80;91.10;;;;;;10103218;28;20033;-67
2023/08/11 21:26:04;;;;;;;5.28;3.28;;;30.70;91.20;;;;;;10096771;28;20025;-66
2023/08/11 21:30:54;;;;;;;5.43;3.50;;;30.60;91.30;;;;;;10086569;28;20580;-67
2023/08/11 21:35:45;;;;;;;5.28;3.03;;;30.50;91.40;;;;;;10101654;28;20428;-68
2023/08/11 21:40:36;;;;;;;5.82;2.90;;;30.50;91.40;;;;;;10098190;28;20038;-67
2023/08/11 21:45:26;;;;;;;4.65;2.88;;;30.40;91.60;;;;;;10100180;28;20024;-66
2023/08/11 21:50:17;;;;;;;3.97;3.25;;;30.30;91.60;;;;;;10102154;28;20040;-67
2023/08/11 21:55:08;;;;;;;4.82;3.08;;;30.30;91.70;;;;;;10102744;28;20142;-67
2023/08/11 21:59:59;;;;;;;4.50;3.08;;;30.30;91.80;;;;;;10084387;28;20071;-67
2023/08/11 22:04:49;;;;;;;4.75;3.38;;;30.30;91.90;;;;;;10101523;28;20385;-67
2023/08/11 22:09:41;;;;;;;5.28;3.50;;;30.20;92.00;;;;;;10101065;28;20713;-66
2023/08/11 22:14:32;;;;;;;9.43;3.53;;;30.10;92.10;;;;;;10103054;28;20045;-67
2023/08/11 22:19:23;;;;;;;5.20;3.80;;;30.00;92.30;;;;;;10101380;28;20061;-67
2023/08/11 22:24:13;;;;;;;4.40;3.65;;;29.80;92.50;;;;;;10082327;28;20021;-66
2023/08/11 22:29:04;;;;;;;6.97;3.95;;;29.90;92.50;;;;;;10100930;28;20068;-67
2023/08/11 22:33:55;;;;;;;5.88;4.05;;;29.80;92.70;;;;;;10100292;28;20028;-68
2023/08/11 22:38:45;;;;;;;7.50;4.35;;;29.70;92.90;;;;;;10101329;28;20017;-68
2023/08/11 22:43:36;;;;;;;5.78;4.15;;;29.60;93.20;;;;;;10100205;28;20059;-68
2023/08/11 22:48:27;;;;;;;7.30;4.85;;;29.50;93.30;;;;;;10103939;28;20041;-68
2023/08/11 22:53:21;;;;;;;7.47;5.05;;;29.60;93.30;;;;;;10072213;28;20037;-68
2023/08/11 22:58:11;;;;;;;6.13;5.28;;;29.50;93.30;;;;;;10100576;28;20017;-67
2023/08/11 23:03:03;;;;;;;8.35;4.97;;;29.30;93.60;;;;;;10099341;28;20021;-68
2023/08/11 23:07:55;;;;;;;8.23;5.40;;;29.30;93.70;;;;;;10099224;28;20025;-68
2023/08/11 23:12:46;;;;;;;8.52;4.93;;;29.10;94.00;;;;;;10096365;28;20458;-69
2023/08/11 23:17:36;;;;;;;9.65;4.50;;;29.10;94.20;;;;;;10106329;28;20053;-68
2023/08/11 23:22:27;;;;;;;7.70;4.78;;;29.10;94.10;;;;;;10095258;28;20111;-68
2023/08/11 23:27:18;;;;;;;6.63;3.90;;;29.10;94.30;;;;;;10094911;28;20037;-68
2023/08/11 23:32:09;;;;;;;7.07;4.63;;;29.10;94.20;;;;;;10097879;28;20454;-66
2023/08/11 23:36:59;;;;;;;6.32;4.22;;;29.10;94.40;;;;;;10097714;28;20036;-66
2023/08/11 23:41:50;;;;;;;8.93;3.55;;;29.00;94.50;;;;;;10079231;28;20031;-67
2023/08/11 23:46:42;;;;;;;7.30;3.85;;;29.00;94.40;;;;;;10099003;28;20532;-67
2023/08/11 23:51:33;;;;;;;4.15;3.67;;;28.70;94.80;;;;;;10097930;28;20087;-66
2023/08/11 23:56:23;;;;;;;5.45;4.50;;;28.60;94.90;;;;;;10093266;28;20035;-66
